createdAt,value
2018-11-25T00:00:15.800Z,4.675
2018-11-25T00:03:15.803Z,2.325
2018-11-25T00:06:15.872Z,8.275
2018-11-25T00:09:15.275Z,8.762
2018-11-25T00:12:15.890Z,12.462
2018-11-25T00:15:15.859Z,3.212
2018-11-25T00:18:15.363Z,1.913
2018-11-25T00:21:15.624Z,2.538
2018-11-25T00:24:15.633Z,2.237
2018-11-25T00:27:15.738Z,3.475
2018-11-25T00:30:15.753Z,3.612
2018-11-25T00:33:26.089Z,1.325
2018-11-25T00:36:15.255Z,3.050
2018-11-25T00:39:15.813Z,2.237
2018-11-25T00:42:15.696Z,1.487
2018-11-25T00:45:15.980Z,2.688
2018-11-25T00:48:15.159Z,2.037
2018-11-25T00:51:15.610Z,1.575
2018-11-25T00:54:15.680Z,3.612
2018-11-25T00:57:15.582Z,1.337
2018-11-25T01:00:15.528Z,1.612
2018-11-25T01:03:15.898Z,2.087
2018-11-25T01:06:15.335Z,1.887
2018-11-25T01:09:15.443Z,3.938
2018-11-25T01:12:15.604Z,4.000
2018-11-25T01:15:15.537Z,4.625
2018-11-25T01:18:15.885Z,1.338
2018-11-25T01:21:15.125Z,7.200
2018-11-25T01:24:15.230Z,1.762
2018-11-25T01:27:15.472Z,3.888
2018-11-25T01:30:15.649Z,3.100
2018-11-25T01:33:15.985Z,2.000
2018-11-25T01:36:15.024Z,3.500
2018-11-25T01:39:16.071Z,2.237
2018-11-25T01:42:15.205Z,2.688
2018-11-25T01:45:15.507Z,2.950
2018-11-25T01:48:15.661Z,5.062
2018-11-25T01:51:15.677Z,3.825
2018-11-25T01:54:15.829Z,2.013
2018-11-25T01:57:15.038Z,2.562
2018-11-25T02:00:14.923Z,7.850
2018-11-25T02:03:15.964Z,4.362
2018-11-25T02:06:15.008Z,2.725
2018-11-25T02:09:15.150Z,4.763
2018-11-25T02:12:15.109Z,2.925
2018-11-25T02:15:15.057Z,2.638
2018-11-25T02:18:15.069Z,2.413
2018-11-25T02:21:15.106Z,2.425
2018-11-25T02:24:15.148Z,6.263
2018-11-25T02:27:15.107Z,1.700
2018-11-25T02:30:15.062Z,2.700
2018-11-25T02:33:15.170Z,4.737
2018-11-25T02:36:15.005Z,4.450
2018-11-25T02:39:15.058Z,1.425
2018-11-25T02:42:15.042Z,2.100
2018-11-25T02:45:14.944Z,3.275
2018-11-25T02:48:15.031Z,9.350
2018-11-25T02:51:15.164Z,1.775
2018-11-25T02:54:15.255Z,2.900
2018-11-25T02:57:15.329Z,0.975
2018-11-25T03:00:15.250Z,1.663
2018-11-25T03:03:15.668Z,3.763
2018-11-25T03:06:15.713Z,0.675
2018-11-25T03:09:15.766Z,1.925
2018-11-25T03:12:15.771Z,1.087
2018-11-25T03:15:15.420Z,2.387
2018-11-25T03:18:15.657Z,10.875
2018-11-25T03:21:15.877Z,6.138
2018-11-25T03:24:15.472Z,2.875
2018-11-25T03:27:15.325Z,6.500
2018-11-25T03:30:15.204Z,4.950
2018-11-25T03:33:15.915Z,8.438
2018-11-25T03:36:15.185Z,2.638
2018-11-25T03:39:15.901Z,3.312
2018-11-25T03:42:15.823Z,7.263
2018-11-25T03:45:15.386Z,3.838
2018-11-25T03:48:15.131Z,1.862
2018-11-25T03:51:16.037Z,2.850
2018-11-25T03:54:15.544Z,4.762
2018-11-25T03:57:15.705Z,1.125
2018-11-25T04:00:15.726Z,1.850
2018-11-25T04:03:15.766Z,2.525
2018-11-25T04:06:15.835Z,2.150
2018-11-25T04:09:15.936Z,9.738
2018-11-25T04:12:15.814Z,4.062
2018-11-25T04:15:15.850Z,2.025
2018-11-25T04:18:14.921Z,3.775
2018-11-25T04:21:15.213Z,2.413
2018-11-25T04:24:15.164Z,2.713
2018-11-25T04:27:15.225Z,2.062
2018-11-25T04:30:15.828Z,2.025
2018-11-25T04:33:15.834Z,3.587
2018-11-25T04:36:15.110Z,1.975
2018-11-25T04:39:15.729Z,3.025
2018-11-25T04:42:15.044Z,5.638
2018-11-25T04:45:15.920Z,3.837
2018-11-25T04:48:15.235Z,1.500
2018-11-25T04:51:15.283Z,2.138
2018-11-25T04:54:15.514Z,6.775
2018-11-25T04:57:15.866Z,7.800
2018-11-25T05:00:15.184Z,2.275
2018-11-25T05:03:15.387Z,9.025
2018-11-25T05:06:15.386Z,11.400
2018-11-25T05:09:15.333Z,12.812
2018-11-25T05:12:15.296Z,14.525
2018-11-25T05:15:15.490Z,5.062
2018-11-25T05:18:15.717Z,9.850
2018-11-25T05:21:15.916Z,6.200
2018-11-25T05:24:15.821Z,2.575
2018-11-25T05:27:15.066Z,2.138
2018-11-25T05:30:15.100Z,2.362
2018-11-25T05:33:15.205Z,5.175
2018-11-25T05:36:15.231Z,2.663
2018-11-25T05:39:15.344Z,7.325
2018-11-25T05:42:15.341Z,3.837
2018-11-25T05:45:15.603Z,4.963
2018-11-25T05:48:15.431Z,2.212
2018-11-25T05:51:15.912Z,12.062
2018-11-25T05:54:15.791Z,3.288
2018-11-25T05:57:15.900Z,4.362
2018-11-25T06:00:15.468Z,3.837
2018-11-25T06:03:15.382Z,5.675
2018-11-25T06:06:15.485Z,1.862
2018-11-25T06:09:15.681Z,2.562
2018-11-25T06:12:15.647Z,11.875
2018-11-25T06:15:15.925Z,4.175
2018-11-25T06:18:15.026Z,2.650
2018-11-25T06:21:15.032Z,3.625
2018-11-25T06:24:15.365Z,3.075
2018-11-25T06:27:15.374Z,2.913
2018-11-25T06:30:15.966Z,7.388
2018-11-25T06:33:15.493Z,2.712
2018-11-25T06:36:15.777Z,2.463
2018-11-25T06:39:15.920Z,5.762
2018-11-25T06:42:15.149Z,2.525
2018-11-25T06:45:15.503Z,2.575
2018-11-25T06:48:16.007Z,2.325
2018-11-25T06:51:15.241Z,3.400
2018-11-25T06:54:15.618Z,13.850
2018-11-25T06:57:15.490Z,11.138
2018-11-25T07:00:15.910Z,6.600
2018-11-25T07:03:15.362Z,5.550
2018-11-25T07:06:15.643Z,3.288
2018-11-25T07:09:15.819Z,3.188
2018-11-25T07:12:15.135Z,1.275
2018-11-25T07:15:15.380Z,10.662
2018-11-25T07:18:15.610Z,10.387
2018-11-25T07:21:15.728Z,6.338
2018-11-25T07:24:15.238Z,4.950
2018-11-25T07:27:15.228Z,1.625
2018-11-25T07:30:15.515Z,1.700
2018-11-25T07:33:15.707Z,5.900
2018-11-25T07:36:15.861Z,1.425
2018-11-25T07:39:15.006Z,2.975
2018-11-25T07:42:15.165Z,2.775
2018-11-25T07:45:15.176Z,1.600
2018-11-25T07:48:15.929Z,2.800
2018-11-25T07:51:15.287Z,2.888
2018-11-25T07:54:15.187Z,0.725
2018-11-25T07:57:15.466Z,2.200
2018-11-25T08:00:15.900Z,2.812
2018-11-25T08:03:15.280Z,3.125
2018-11-25T08:06:15.361Z,7.062
2018-11-25T08:09:15.565Z,10.650
2018-11-25T08:12:15.784Z,8.775
2018-11-25T08:15:15.184Z,8.863
2018-11-25T08:18:15.669Z,4.325
2018-11-25T08:21:15.868Z,4.275
2018-11-25T08:24:15.043Z,4.700
2018-11-25T08:27:15.940Z,11.150
2018-11-25T08:30:14.933Z,10.688
2018-11-25T08:33:15.286Z,5.938
2018-11-25T08:36:15.887Z,4.950
2018-11-25T08:39:15.126Z,6.337
2018-11-25T08:42:15.303Z,8.550
2018-11-25T08:45:15.605Z,8.600
2018-11-25T08:48:15.677Z,3.950
2018-11-25T08:51:15.785Z,5.587
2018-11-25T08:54:15.453Z,9.787
2018-11-25T08:57:15.663Z,11.988
2018-11-25T09:00:15.125Z,15.488
2018-11-25T09:03:15.747Z,10.725
2018-11-25T09:06:15.896Z,17.000
2018-11-25T09:09:15.225Z,17.750
2018-11-25T09:12:15.492Z,11.525
2018-11-25T09:15:15.771Z,8.675
2018-11-25T09:18:15.356Z,26.912
2018-11-25T09:21:15.657Z,17.712
2018-11-25T09:24:16.010Z,16.413
2018-11-25T09:27:15.256Z,18.750
2018-11-25T09:30:15.614Z,19.225
2018-11-25T09:33:15.197Z,22.462
2018-11-25T09:36:15.287Z,21.100
2018-11-25T09:39:15.646Z,13.525
2018-11-25T09:42:14.922Z,23.312
2018-11-25T09:45:15.353Z,25.400
2018-11-25T09:48:16.135Z,25.475
2018-11-25T09:51:15.246Z,19.487
2018-11-25T09:54:15.659Z,18.375
2018-11-25T09:57:15.103Z,23.225
2018-11-25T10:00:15.276Z,17.312
2018-11-25T10:03:15.266Z,25.337
2018-11-25T10:06:15.320Z,27.163
2018-11-25T10:09:15.831Z,18.337
2018-11-25T10:12:15.020Z,12.975
2018-11-25T10:15:15.283Z,16.913
2018-11-25T10:18:15.851Z,20.137
2018-11-25T10:21:15.907Z,17.012
2018-11-25T10:24:15.144Z,21.487
2018-11-25T10:27:15.366Z,22.188
2018-11-25T10:30:15.430Z,18.625
2018-11-25T10:33:15.863Z,16.238
2018-11-25T10:36:15.919Z,14.100
2018-11-25T10:39:15.962Z,13.863
2018-11-25T10:42:15.153Z,22.988
2018-11-25T10:45:15.428Z,16.337
2018-11-25T10:48:15.591Z,12.688
2018-11-25T10:51:15.718Z,12.625
2018-11-25T10:54:15.231Z,11.162
2018-11-25T10:57:15.423Z,17.263
2018-11-25T11:00:15.333Z,20.812
2018-11-25T11:03:16.027Z,13.700
2018-11-25T11:06:15.338Z,18.875
2018-11-25T11:09:15.255Z,10.800
2018-11-25T11:12:15.586Z,16.400
2018-11-25T11:15:16.054Z,13.425
2018-11-25T11:18:15.381Z,12.588
2018-11-25T11:21:15.716Z,13.525
2018-11-25T11:24:15.202Z,12.675
2018-11-25T11:27:15.479Z,16.525
2018-11-25T11:30:15.514Z,21.913
2018-11-25T11:33:15.882Z,17.300
2018-11-25T11:36:15.088Z,14.950
2018-11-25T11:39:15.268Z,19.400
2018-11-25T11:42:15.347Z,16.863
2018-11-25T11:45:15.832Z,15.175
2018-11-25T11:48:15.196Z,15.537
2018-11-25T11:51:15.280Z,14.662
2018-11-25T11:54:15.354Z,16.362
2018-11-25T11:57:15.674Z,16.863
2018-11-25T12:00:15.764Z,14.500
2018-11-25T12:03:15.449Z,17.413
2018-11-25T12:06:15.451Z,13.925
2018-11-25T12:09:15.804Z,15.725
2018-11-25T12:12:15.892Z,15.100
2018-11-25T12:15:15.013Z,17.337
2018-11-25T12:18:15.144Z,14.025
2018-11-25T12:21:15.173Z,18.488
2018-11-25T12:24:15.329Z,13.125
2018-11-25T12:27:15.809Z,13.938
2018-11-25T12:30:15.936Z,13.387
2018-11-25T12:33:15.269Z,10.300
2018-11-25T12:36:15.431Z,12.312
2018-11-25T12:39:15.602Z,11.712
2018-11-25T12:42:15.756Z,13.938
2018-11-25T12:45:15.296Z,10.213
2018-11-25T12:48:15.410Z,13.750
2018-11-25T12:51:15.555Z,14.712
2018-11-25T12:54:15.896Z,15.137
2018-11-25T12:57:15.144Z,12.388
2018-11-25T13:00:15.349Z,11.700
2018-11-25T13:03:15.241Z,13.925
2018-11-25T13:06:15.545Z,13.150
2018-11-25T13:09:15.080Z,14.175
2018-11-25T13:12:15.037Z,12.837
2018-11-25T13:15:16.535Z,10.550
2018-11-25T13:18:15.878Z,14.388
2018-11-25T13:21:15.259Z,16.725
2018-11-25T13:24:15.557Z,13.900
2018-11-25T13:27:15.874Z,13.363
2018-11-25T13:30:15.041Z,11.750
2018-11-25T13:33:15.164Z,16.688
2018-11-25T13:36:15.094Z,10.863
2018-11-25T13:39:15.328Z,13.812
2018-11-25T13:42:16.306Z,13.412
2018-11-25T13:45:15.565Z,13.562
2018-11-25T13:48:15.786Z,13.950
2018-11-25T13:51:15.897Z,11.325
2018-11-25T13:54:15.224Z,12.600
2018-11-25T13:57:15.525Z,7.863
2018-11-25T14:00:15.846Z,8.375
2018-11-25T14:03:14.946Z,15.262
2018-11-25T14:06:15.862Z,10.137
2018-11-25T14:09:15.104Z,7.925
2018-11-25T14:12:15.546Z,10.288
2018-11-25T14:15:15.630Z,11.338
2018-11-25T14:18:15.873Z,8.312
2018-11-25T14:21:15.801Z,13.500
2018-11-25T14:24:15.280Z,9.025
2018-11-25T14:27:15.511Z,8.113
2018-11-25T14:30:15.702Z,8.475
2018-11-25T14:33:15.227Z,7.525
2018-11-25T14:36:16.059Z,10.750
2018-11-25T14:39:15.238Z,8.250
2018-11-25T14:42:15.419Z,11.738
2018-11-25T14:45:15.804Z,6.263
2018-11-25T14:48:14.971Z,16.100
2018-11-25T14:51:15.067Z,16.025
2018-11-25T14:54:15.139Z,5.850
2018-11-25T14:57:15.205Z,6.575
2018-11-25T15:00:15.176Z,12.912
2018-11-25T15:03:15.253Z,8.425
2018-11-25T15:06:15.434Z,9.675
2018-11-25T15:09:15.744Z,10.825
2018-11-25T15:12:15.691Z,9.087
2018-11-25T15:15:15.888Z,11.250
2018-11-25T15:18:15.217Z,9.475
2018-11-25T15:21:15.251Z,6.975
2018-11-25T15:24:15.465Z,8.137
2018-11-25T15:27:15.832Z,7.500
2018-11-25T15:30:33.516Z,9.713
2018-11-25T15:33:17.050Z,6.850
2018-11-25T15:36:16.040Z,9.087
2018-11-25T15:39:16.230Z,7.262
2018-11-25T15:42:23.393Z,6.300
2018-11-25T15:45:16.324Z,9.762
2018-11-25T15:57:18.063Z,12.850
2018-11-25T16:00:15.205Z,9.188
2018-11-25T16:03:15.186Z,8.975
2018-11-25T16:06:15.138Z,9.538
2018-11-25T16:09:15.432Z,9.037
2018-11-25T16:12:15.652Z,7.112
2018-11-25T16:15:14.882Z,8.375
2018-11-25T16:18:15.403Z,7.925
2018-11-25T16:21:15.539Z,13.600
2018-11-25T16:24:14.942Z,4.912
2018-11-25T16:27:15.896Z,9.025
2018-11-25T16:30:15.203Z,12.325
2018-11-25T16:48:14.636Z,14.975
2018-11-25T16:51:15.439Z,8.037
2018-11-25T16:54:14.985Z,5.350
2018-11-25T16:57:15.858Z,9.300
2018-11-25T17:00:15.557Z,11.513
2018-11-25T17:03:15.360Z,7.862
2018-11-25T17:06:14.913Z,11.863
2018-11-25T17:09:15.630Z,7.088
2018-11-25T17:12:15.457Z,4.500
2018-11-25T17:15:15.095Z,7.487
2018-11-25T17:18:15.470Z,7.250
2018-11-25T17:21:15.087Z,5.825
2018-11-25T17:24:15.614Z,11.925
2018-11-25T17:27:15.289Z,10.025
2018-11-25T17:30:15.150Z,6.850
2018-11-25T17:33:15.889Z,11.075
2018-11-25T17:36:15.452Z,9.887
2018-11-25T17:39:15.196Z,8.550
2018-11-25T17:42:15.908Z,10.525
2018-11-25T17:45:15.624Z,8.900
2018-11-25T17:48:15.313Z,9.750
2018-11-25T17:51:15.009Z,8.037
2018-11-25T17:54:15.740Z,19.462
2018-11-25T17:57:15.367Z,10.900
2018-11-25T18:00:15.141Z,8.350
2018-11-25T18:03:15.755Z,12.325
2018-11-25T18:06:15.494Z,11.312
2018-11-25T18:09:15.226Z,10.462
2018-11-25T18:12:14.848Z,6.125
2018-11-25T18:15:15.536Z,7.887
2018-11-25T18:18:15.276Z,9.738
2018-11-25T18:21:15.880Z,16.525
2018-11-25T18:24:14.895Z,8.725
2018-11-25T18:27:15.097Z,13.250
2018-11-25T18:30:15.584Z,11.588
2018-11-25T18:33:15.920Z,11.325
2018-11-25T18:36:15.890Z,12.312
2018-11-25T18:39:15.734Z,13.600
2018-11-25T18:42:15.551Z,12.425
2018-11-25T18:45:15.587Z,13.938
2018-11-25T18:48:16.051Z,12.438
2018-11-25T18:51:15.021Z,8.062
2018-11-25T18:54:15.884Z,9.550
2018-11-25T18:57:15.958Z,11.213
2018-11-25T19:00:15.125Z,11.525
2018-11-25T19:03:28.536Z,9.850
2018-11-25T19:06:39.411Z,10.438
2018-11-25T19:09:20.172Z,8.650
2018-11-25T19:12:44.088Z,10.400
2018-11-25T19:15:30.125Z,12.550
2018-11-25T19:21:23.091Z,10.925
2018-11-25T19:24:15.441Z,7.950
2018-11-25T19:27:15.348Z,10.600
2018-11-25T19:30:15.218Z,10.775
2018-11-25T19:33:15.081Z,19.013
2018-11-25T19:36:15.871Z,22.712
2018-11-25T19:39:15.726Z,11.575
2018-11-25T19:42:15.487Z,12.400
2018-11-25T19:45:15.804Z,10.925
2018-11-25T19:48:15.612Z,7.088
2018-11-25T19:51:17.602Z,9.037
2018-11-25T19:54:15.846Z,12.025
2018-11-25T19:57:15.756Z,13.050
2018-11-25T20:00:15.796Z,10.337
2018-11-25T20:03:15.081Z,10.887
2018-11-25T20:06:15.531Z,11.387
2018-11-25T20:09:15.532Z,7.088
2018-11-25T20:12:15.153Z,12.362
2018-11-25T20:15:15.902Z,9.800
2018-11-25T20:18:15.039Z,8.162
2018-11-25T20:21:14.955Z,10.675
2018-11-25T20:24:15.644Z,10.225
2018-11-25T20:27:15.385Z,6.963
2018-11-25T20:30:15.956Z,9.238
2018-11-25T20:33:15.101Z,11.062
2018-11-25T20:36:15.652Z,12.800
2018-11-25T20:39:15.615Z,9.150
2018-11-25T20:42:15.453Z,12.637
2018-11-25T20:45:15.227Z,10.238
2018-11-25T20:48:15.711Z,14.950
2018-11-25T20:51:15.585Z,11.587
2018-11-25T20:54:15.129Z,12.612
2018-11-25T20:57:14.915Z,8.800
2018-11-25T21:00:15.798Z,10.488
2018-11-25T21:03:15.279Z,18.625
2018-11-25T21:06:15.142Z,10.200
2018-11-25T21:09:14.931Z,14.562
2018-11-25T21:12:15.864Z,17.075
2018-11-25T21:15:15.734Z,19.350
2018-11-25T21:18:15.748Z,9.475
2018-11-25T21:21:15.114Z,12.925
2018-11-25T21:24:16.044Z,10.450
2018-11-25T21:27:15.872Z,9.425
2018-11-25T21:30:15.613Z,11.688
2018-11-25T21:33:15.731Z,9.262
2018-11-25T21:36:15.605Z,8.275
2018-11-25T21:39:15.715Z,9.475
2018-11-25T21:42:15.604Z,9.113
2018-11-25T21:45:15.294Z,12.987
2018-11-25T21:48:15.126Z,14.838
2018-11-25T21:51:15.912Z,10.800
2018-11-25T21:54:15.686Z,17.350
2018-11-25T21:57:15.573Z,11.475
2018-11-25T22:00:15.432Z,9.113
2018-11-25T22:03:15.755Z,9.375
2018-11-25T22:06:15.610Z,10.337
2018-11-25T22:09:15.338Z,11.963
2018-11-25T22:12:15.004Z,6.463
2018-11-25T22:15:15.486Z,9.900
2018-11-25T22:18:15.516Z,16.725
2018-11-25T22:21:15.322Z,9.525
2018-11-25T22:24:15.176Z,10.137
2018-11-25T22:27:15.292Z,12.737
2018-11-25T22:30:15.071Z,9.650
2018-11-25T22:33:15.544Z,14.925
2018-11-25T22:36:15.315Z,12.562
2018-11-25T22:39:15.520Z,18.413
2018-11-25T22:42:15.021Z,13.662
2018-11-25T22:45:15.154Z,13.175
2018-11-25T22:48:15.539Z,7.100
2018-11-25T22:51:14.948Z,8.488
2018-11-25T22:54:15.310Z,12.875
2018-11-25T22:57:15.612Z,13.338
2018-11-25T23:00:15.846Z,11.888
2018-11-25T23:03:15.579Z,11.738
2018-11-25T23:06:15.329Z,9.850
2018-11-25T23:09:15.463Z,13.525
2018-11-25T23:12:15.208Z,14.400
2018-11-25T23:15:15.879Z,6.662
2018-11-25T23:18:15.124Z,10.413
2018-11-25T23:21:15.871Z,14.012
2018-11-25T23:24:15.739Z,11.538
2018-11-25T23:27:15.492Z,12.250
2018-11-25T23:30:15.411Z,12.525
2018-11-25T23:33:15.123Z,10.688
2018-11-25T23:36:15.839Z,12.062
2018-11-25T23:39:15.666Z,6.750
2018-11-25T23:42:15.344Z,10.837
2018-11-25T23:45:14.975Z,12.975
2018-11-25T23:48:15.712Z,12.350
2018-11-25T23:51:15.421Z,12.012
2018-11-25T23:54:15.303Z,8.637
2018-11-25T23:57:14.993Z,7.650
